Edmondson, Arkansas
Current Conditions -  °F | °C
As of 8:53 PM on Monday 22 Dec 2014 (Local Time) from KAWM Reporting Station
Broken Clouds Broken Clouds  
Wind Chill: 54°   Ceiling: 5500
Heat Index: 54°   Visibility: 7mi
Dew Point: 54°   Wind: 5mph
Humidity: 100%   Direction: 180°S
Pressure: 29.64"   Gusts: NA
Location:  35.11°N, 90.31°W
Report Text: KAWM 230253Z AUTO 18004KT 7SM SCT030 BKN055 12/12 A2964 RMK AO2 SLP035 60003 T01220122 53010
Loading
Personal Weather Stations






























Interactive Weather Map New forecast layout! Learn more

10-Day Weather Forecast

Advertisements
Track Severe Weather on mobile